sensor_id;sensor_type;location;lat;lon;timestamp;temperature;humidity
39925;DHT22;25592;49.986;11.618;2023-12-14T00:02:35;9.60;99.90
39925;DHT22;25592;49.986;11.618;2023-12-14T00:05:20;9.60;99.90
39925;DHT22;25592;49.986;11.618;2023-12-14T00:08:06;9.50;99.90
39925;DHT22;25592;49.986;11.618;2023-12-14T00:10:51;9.50;99.90
39925;DHT22;25592;49.986;11.618;2023-12-14T00:13:37;9.60;99.90
39925;DHT22;25592;49.986;11.618;2023-12-14T00:16:22;9.50;99.90
39925;DHT22;25592;49.986;11.618;2023-12-14T00:19:08;9.50;99.90
39925;DHT22;25592;49.986;11.618;2023-12-14T00:21:53;9.60;99.90
39925;DHT22;25592;49.986;11.618;2023-12-14T00:24:39;9.50;99.90
39925;DHT22;25592;49.986;11.618;2023-12-14T00:27:24;9.50;99.90
39925;DHT22;25592;49.986;11.618;2023-12-14T00:30:10;9.60;99.90
39925;DHT22;25592;49.986;11.618;2023-12-14T00:32:56;9.60;99.90
39925;DHT22;25592;49.986;11.618;2023-12-14T00:35:41;9.60;99.90
39925;DHT22;25592;49.986;11.618;2023-12-14T00:38:27;9.50;99.90
39925;DHT22;25592;49.986;11.618;2023-12-14T00:41:12;9.50;99.90
39925;DHT22;25592;49.986;11.618;2023-12-14T00:43:58;9.60;99.90
39925;DHT22;25592;49.986;11.618;2023-12-14T00:46:43;9.60;99.90
39925;DHT22;25592;49.986;11.618;2023-12-14T00:49:28;9.50;99.90
39925;DHT22;25592;49.986;11.618;2023-12-14T00:52:14;9.50;99.90
39925;DHT22;25592;49.986;11.618;2023-12-14T00:55:00;9.50;99.90
39925;DHT22;25592;49.986;11.618;2023-12-14T00:57:45;9.50;99.90
39925;DHT22;25592;49.986;11.618;2023-12-14T01:00:30;9.40;99.90
39925;DHT22;25592;49.986;11.618;2023-12-14T01:03:16;9.40;99.90
39925;DHT22;25592;49.986;11.618;2023-12-14T01:06:02;9.40;99.90
39925;DHT22;25592;49.986;11.618;2023-12-14T01:08:47;9.40;99.90
39925;DHT22;25592;49.986;11.618;2023-12-14T01:11:33;9.40;99.90
39925;DHT22;25592;49.986;11.618;2023-12-14T01:14:18;9.30;99.90
39925;DHT22;25592;49.986;11.618;2023-12-14T01:17:04;9.30;99.90
39925;DHT22;25592;49.986;11.618;2023-12-14T01:19:49;9.30;99.90
39925;DHT22;25592;49.986;11.618;2023-12-14T01:22:35;9.30;99.90
39925;DHT22;25592;49.986;11.618;2023-12-14T01:25:21;9.30;99.90
39925;DHT22;25592;49.986;11.618;2023-12-14T01:28:06;9.40;99.90
39925;DHT22;25592;49.986;11.618;2023-12-14T01:30:52;9.40;99.90
39925;DHT22;25592;49.986;11.618;2023-12-14T01:33:38;9.40;99.90
39925;DHT22;25592;49.986;11.618;2023-12-14T01:36:25;9.40;99.90
39925;DHT22;25592;49.986;11.618;2023-12-14T01:39:10;9.40;99.90
39925;DHT22;25592;49.986;11.618;2023-12-14T01:41:56;9.40;99.90
39925;DHT22;25592;49.986;11.618;2023-12-14T01:44:41;9.40;99.90
39925;DHT22;25592;49.986;11.618;2023-12-14T01:47:26;9.40;99.90
39925;DHT22;25592;49.986;11.618;2023-12-14T01:50:12;9.40;99.90
39925;DHT22;25592;49.986;11.618;2023-12-14T01:52:57;9.40;99.90
39925;DHT22;25592;49.986;11.618;2023-12-14T01:55:43;9.40;99.90
39925;DHT22;25592;49.986;11.618;2023-12-14T01:58:28;9.40;99.90
39925;DHT22;25592;49.986;11.618;2023-12-14T02:01:33;9.40;99.90
39925;DHT22;25592;49.986;11.618;2023-12-14T02:04:19;9.40;99.90
39925;DHT22;25592;49.986;11.618;2023-12-14T02:07:05;9.30;99.90
39925;DHT22;25592;49.986;11.618;2023-12-14T02:09:50;9.30;99.90
39925;DHT22;25592;49.986;11.618;2023-12-14T02:12:36;9.30;99.90
39925;DHT22;25592;49.986;11.618;2023-12-14T02:15:21;9.30;99.90
39925;DHT22;25592;49.986;11.618;2023-12-14T02:18:07;9.20;99.90
39925;DHT22;25592;49.986;11.618;2023-12-14T02:20:53;9.20;99.90
39925;DHT22;25592;49.986;11.618;2023-12-14T02:23:45;9.30;99.90
39925;DHT22;25592;49.986;11.618;2023-12-14T02:26:30;9.30;99.90
39925;DHT22;25592;49.986;11.618;2023-12-14T02:29:15;9.30;99.90
39925;DHT22;25592;49.986;11.618;2023-12-14T02:32:01;9.30;99.90
39925;DHT22;25592;49.986;11.618;2023-12-14T02:34:46;9.30;99.90
39925;DHT22;25592;49.986;11.618;2023-12-14T02:37:35;9.30;99.90
39925;DHT22;25592;49.986;11.618;2023-12-14T02:40:27;9.30;99.90
39925;DHT22;25592;49.986;11.618;2023-12-14T02:43:12;9.30;99.90
39925;DHT22;25592;49.986;11.618;2023-12-14T02:45:58;9.30;99.90
39925;DHT22;25592;49.986;11.618;2023-12-14T02:48:47;9.20;99.90
39925;DHT22;25592;49.986;11.618;2023-12-14T02:51:32;9.20;99.90
39925;DHT22;25592;49.986;11.618;2023-12-14T02:54:18;9.10;99.90
39925;DHT22;25592;49.986;11.618;2023-12-14T02:57:03;9.00;99.90
39925;DHT22;25592;49.986;11.618;2023-12-14T02:59:49;8.90;99.90
39925;DHT22;25592;49.986;11.618;2023-12-14T03:02:34;8.90;99.90
39925;DHT22;25592;49.986;11.618;2023-12-14T03:05:20;8.90;99.90
39925;DHT22;25592;49.986;11.618;2023-12-14T03:08:06;8.80;99.90
39925;DHT22;25592;49.986;11.618;2023-12-14T03:10:51;8.70;99.90
39925;DHT22;25592;49.986;11.618;2023-12-14T03:13:36;8.70;99.90
39925;DHT22;25592;49.986;11.618;2023-12-14T03:16:22;8.70;99.90
39925;DHT22;25592;49.986;11.618;2023-12-14T03:19:08;8.80;99.90
39925;DHT22;25592;49.986;11.618;2023-12-14T03:21:54;8.80;99.90
39925;DHT22;25592;49.986;11.618;2023-12-14T03:24:39;8.90;99.90
39925;DHT22;25592;49.986;11.618;2023-12-14T03:27:24;8.90;99.90
39925;DHT22;25592;49.986;11.618;2023-12-14T03:30:10;8.90;99.90
39925;DHT22;25592;49.986;11.618;2023-12-14T03:32:56;8.80;99.90
39925;DHT22;25592;49.986;11.618;2023-12-14T03:35:41;8.80;99.90
39925;DHT22;25592;49.986;11.618;2023-12-14T03:38:27;8.90;99.90
39925;DHT22;25592;49.986;11.618;2023-12-14T03:41:12;8.90;99.90
39925;DHT22;25592;49.986;11.618;2023-12-14T03:43:58;8.90;99.90
39925;DHT22;25592;49.986;11.618;2023-12-14T03:46:43;8.80;99.90
39925;DHT22;25592;49.986;11.618;2023-12-14T03:49:28;8.80;99.90
39925;DHT22;25592;49.986;11.618;2023-12-14T03:52:14;8.90;99.90
39925;DHT22;25592;49.986;11.618;2023-12-14T03:54:59;8.80;99.90
39925;DHT22;25592;49.986;11.618;2023-12-14T03:57:45;8.80;99.90
39925;DHT22;25592;49.986;11.618;2023-12-14T04:00:30;8.80;99.90
39925;DHT22;25592;49.986;11.618;2023-12-14T04:03:16;8.90;99.90
39925;DHT22;25592;49.986;11.618;2023-12-14T04:06:01;8.80;99.90
39925;DHT22;25592;49.986;11.618;2023-12-14T04:08:47;8.90;99.90
39925;DHT22;25592;49.986;11.618;2023-12-14T04:11:32;8.90;99.90
39925;DHT22;25592;49.986;11.618;2023-12-14T04:14:17;8.90;99.90
39925;DHT22;25592;49.986;11.618;2023-12-14T04:17:03;8.90;99.90
39925;DHT22;25592;49.986;11.618;2023-12-14T04:19:48;8.90;99.90
39925;DHT22;25592;49.986;11.618;2023-12-14T04:22:34;8.80;99.90
39925;DHT22;25592;49.986;11.618;2023-12-14T04:25:19;8.80;99.90
39925;DHT22;25592;49.986;11.618;2023-12-14T04:28:05;8.80;99.90
39925;DHT22;25592;49.986;11.618;2023-12-14T04:30:50;8.80;99.90
39925;DHT22;25592;49.986;11.618;2023-12-14T04:33:36;8.80;99.90
39925;DHT22;25592;49.986;11.618;2023-12-14T04:36:21;8.80;99.90
39925;DHT22;25592;49.986;11.618;2023-12-14T04:39:07;8.80;99.90
39925;DHT22;25592;49.986;11.618;2023-12-14T04:41:53;8.80;99.90
39925;DHT22;25592;49.986;11.618;2023-12-14T04:44:39;8.80;99.90
39925;DHT22;25592;49.986;11.618;2023-12-14T04:47:24;8.80;99.90
39925;DHT22;25592;49.986;11.618;2023-12-14T04:50:10;8.80;99.90
39925;DHT22;25592;49.986;11.618;2023-12-14T04:52:55;8.80;99.90
39925;DHT22;25592;49.986;11.618;2023-12-14T04:55:41;8.80;99.90
39925;DHT22;25592;49.986;11.618;2023-12-14T04:58:29;8.80;99.90
39925;DHT22;25592;49.986;11.618;2023-12-14T05:01:14;8.80;99.90
39925;DHT22;25592;49.986;11.618;2023-12-14T05:04:00;8.80;99.90
39925;DHT22;25592;49.986;11.618;2023-12-14T05:06:45;8.80;99.90
39925;DHT22;25592;49.986;11.618;2023-12-14T05:09:31;8.90;99.90
39925;DHT22;25592;49.986;11.618;2023-12-14T05:12:16;8.80;99.90
39925;DHT22;25592;49.986;11.618;2023-12-14T05:15:04;8.70;99.90
39925;DHT22;25592;49.986;11.618;2023-12-14T05:17:50;8.80;99.90
39925;DHT22;25592;49.986;11.618;2023-12-14T05:20:35;8.70;99.90
39925;DHT22;25592;49.986;11.618;2023-12-14T05:23:22;8.70;99.90
39925;DHT22;25592;49.986;11.618;2023-12-14T05:26:07;8.70;99.90
39925;DHT22;25592;49.986;11.618;2023-12-14T05:28:53;8.60;99.90
39925;DHT22;25592;49.986;11.618;2023-12-14T05:31:39;8.60;99.90
39925;DHT22;25592;49.986;11.618;2023-12-14T05:34:24;8.50;99.90
39925;DHT22;25592;49.986;11.618;2023-12-14T05:37:10;8.50;99.90
39925;DHT22;25592;49.986;11.618;2023-12-14T05:39:55;8.60;99.90
39925;DHT22;25592;49.986;11.618;2023-12-14T05:42:41;8.50;99.90
39925;DHT22;25592;49.986;11.618;2023-12-14T05:45:26;8.40;99.90
39925;DHT22;25592;49.986;11.618;2023-12-14T05:48:12;8.40;99.90
39925;DHT22;25592;49.986;11.618;2023-12-14T05:50:57;8.50;99.90
39925;DHT22;25592;49.986;11.618;2023-12-14T05:53:43;8.50;99.90
39925;DHT22;25592;49.986;11.618;2023-12-14T05:56:28;8.60;99.90
39925;DHT22;25592;49.986;11.618;2023-12-14T05:59:14;8.70;99.90
39925;DHT22;25592;49.986;11.618;2023-12-14T06:02:00;8.60;99.90
39925;DHT22;25592;49.986;11.618;2023-12-14T06:04:46;8.60;99.90
39925;DHT22;25592;49.986;11.618;2023-12-14T06:07:31;8.50;99.90
39925;DHT22;25592;49.986;11.618;2023-12-14T06:10:19;8.50;99.90
39925;DHT22;25592;49.986;11.618;2023-12-14T06:13:06;8.50;99.90
39925;DHT22;25592;49.986;11.618;2023-12-14T06:15:51;8.80;99.90
39925;DHT22;25592;49.986;11.618;2023-12-14T06:18:37;8.70;99.90
39925;DHT22;25592;49.986;11.618;2023-12-14T06:21:24;8.70;99.90
39925;DHT22;25592;49.986;11.618;2023-12-14T06:24:13;8.70;99.90
39925;DHT22;25592;49.986;11.618;2023-12-14T06:26:59;8.60;99.90
39925;DHT22;25592;49.986;11.618;2023-12-14T06:29:44;8.50;99.90
39925;DHT22;25592;49.986;11.618;2023-12-14T06:32:30;8.50;99.90
39925;DHT22;25592;49.986;11.618;2023-12-14T06:35:16;8.60;99.90
39925;DHT22;25592;49.986;11.618;2023-12-14T06:38:01;8.50;99.90
39925;DHT22;25592;49.986;11.618;2023-12-14T06:40:47;8.60;99.90
39925;DHT22;25592;49.986;11.618;2023-12-14T06:43:32;8.50;99.90
39925;DHT22;25592;49.986;11.618;2023-12-14T06:46:18;8.60;99.90
39925;DHT22;25592;49.986;11.618;2023-12-14T06:49:03;8.50;99.90
39925;DHT22;25592;49.986;11.618;2023-12-14T06:51:49;8.50;99.90
39925;DHT22;25592;49.986;11.618;2023-12-14T06:54:34;8.60;99.90
39925;DHT22;25592;49.986;11.618;2023-12-14T06:57:20;8.60;99.90
39925;DHT22;25592;49.986;11.618;2023-12-14T07:00:09;8.60;99.90
39925;DHT22;25592;49.986;11.618;2023-12-14T07:02:54;8.60;99.90
39925;DHT22;25592;49.986;11.618;2023-12-14T07:05:40;8.50;99.90
39925;DHT22;25592;49.986;11.618;2023-12-14T07:08:26;8.50;99.90
39925;DHT22;25592;49.986;11.618;2023-12-14T07:11:11;8.60;99.90
39925;DHT22;25592;49.986;11.618;2023-12-14T07:13:57;8.50;99.90
39925;DHT22;25592;49.986;11.618;2023-12-14T07:16:42;8.60;99.90
39925;DHT22;25592;49.986;11.618;2023-12-14T07:19:28;8.60;99.90
39925;DHT22;25592;49.986;11.618;2023-12-14T07:22:13;8.60;99.90
39925;DHT22;25592;49.986;11.618;2023-12-14T07:24:59;8.60;99.90
39925;DHT22;25592;49.986;11.618;2023-12-14T07:27:44;8.70;99.90
39925;DHT22;25592;49.986;11.618;2023-12-14T07:30:31;8.80;99.90
39925;DHT22;25592;49.986;11.618;2023-12-14T07:33:17;8.70;99.90
39925;DHT22;25592;49.986;11.618;2023-12-14T07:36:03;8.70;99.90
39925;DHT22;25592;49.986;11.618;2023-12-14T07:38:50;8.70;99.90
39925;DHT22;25592;49.986;11.618;2023-12-14T07:41:39;8.70;99.90
39925;DHT22;25592;49.986;11.618;2023-12-14T07:44:25;8.70;99.90
39925;DHT22;25592;49.986;11.618;2023-12-14T07:47:11;8.70;99.90
39925;DHT22;25592;49.986;11.618;2023-12-14T07:49:56;8.70;99.90
39925;DHT22;25592;49.986;11.618;2023-12-14T07:52:42;8.70;99.90
39925;DHT22;25592;49.986;11.618;2023-12-14T07:55:28;8.90;99.90
39925;DHT22;25592;49.986;11.618;2023-12-14T07:58:14;8.80;99.90
39925;DHT22;25592;49.986;11.618;2023-12-14T08:01:00;8.80;99.90
39925;DHT22;25592;49.986;11.618;2023-12-14T08:03:45;8.70;99.90
39925;DHT22;25592;49.986;11.618;2023-12-14T08:06:31;8.70;99.90
39925;DHT22;25592;49.986;11.618;2023-12-14T08:09:16;8.70;99.90
39925;DHT22;25592;49.986;11.618;2023-12-14T08:12:02;8.80;99.90
39925;DHT22;25592;49.986;11.618;2023-12-14T08:14:48;8.80;99.90
39925;DHT22;25592;49.986;11.618;2023-12-14T08:17:33;8.70;99.90
39925;DHT22;25592;49.986;11.618;2023-12-14T08:20:19;8.70;99.90
39925;DHT22;25592;49.986;11.618;2023-12-14T08:23:04;8.70;99.90
39925;DHT22;25592;49.986;11.618;2023-12-14T08:25:50;8.70;99.90
39925;DHT22;25592;49.986;11.618;2023-12-14T08:28:36;8.80;99.90
39925;DHT22;25592;49.986;11.618;2023-12-14T08:31:21;8.80;99.90
39925;DHT22;25592;49.986;11.618;2023-12-14T08:34:07;8.70;99.90
39925;DHT22;25592;49.986;11.618;2023-12-14T08:36:54;8.80;99.90
39925;DHT22;25592;49.986;11.618;2023-12-14T08:39:40;8.80;99.90
39925;DHT22;25592;49.986;11.618;2023-12-14T08:42:25;8.80;99.90
39925;DHT22;25592;49.986;11.618;2023-12-14T08:45:10;8.80;99.90
39925;DHT22;25592;49.986;11.618;2023-12-14T08:47:56;8.80;99.90
39925;DHT22;25592;49.986;11.618;2023-12-14T08:50:42;8.80;99.90
39925;DHT22;25592;49.986;11.618;2023-12-14T08:53:27;8.80;99.90
39925;DHT22;25592;49.986;11.618;2023-12-14T08:56:14;8.80;99.90
39925;DHT22;25592;49.986;11.618;2023-12-14T08:59:00;8.80;99.90
39925;DHT22;25592;49.986;11.618;2023-12-14T09:01:48;8.90;99.90
39925;DHT22;25592;49.986;11.618;2023-12-14T09:04:34;8.70;99.90
39925;DHT22;25592;49.986;11.618;2023-12-14T09:07:21;8.70;99.90
39925;DHT22;25592;49.986;11.618;2023-12-14T09:10:07;8.80;99.90
39925;DHT22;25592;49.986;11.618;2023-12-14T09:12:52;8.80;99.90
39925;DHT22;25592;49.986;11.618;2023-12-14T09:15:38;8.80;99.90
39925;DHT22;25592;49.986;11.618;2023-12-14T09:18:23;8.80;99.90
39925;DHT22;25592;49.986;11.618;2023-12-14T09:21:09;8.80;99.90
39925;DHT22;25592;49.986;11.618;2023-12-14T09:23:54;8.90;99.90
39925;DHT22;25592;49.986;11.618;2023-12-14T09:26:40;8.90;99.90
39925;DHT22;25592;49.986;11.618;2023-12-14T09:29:25;8.90;99.90
39925;DHT22;25592;49.986;11.618;2023-12-14T09:32:11;8.90;99.90
39925;DHT22;25592;49.986;11.618;2023-12-14T09:34:56;8.90;99.90
39925;DHT22;25592;49.986;11.618;2023-12-14T09:37:42;8.90;99.90
39925;DHT22;25592;49.986;11.618;2023-12-14T09:40:27;8.90;99.90
39925;DHT22;25592;49.986;11.618;2023-12-14T09:43:13;8.90;99.90
39925;DHT22;25592;49.986;11.618;2023-12-14T09:46:00;9.00;99.90
39925;DHT22;25592;49.986;11.618;2023-12-14T09:48:46;9.00;99.90
39925;DHT22;25592;49.986;11.618;2023-12-14T09:51:32;9.00;99.90
39925;DHT22;25592;49.986;11.618;2023-12-14T09:54:17;8.90;99.90
39925;DHT22;25592;49.986;11.618;2023-12-14T09:57:03;9.00;99.90
39925;DHT22;25592;49.986;11.618;2023-12-14T09:59:53;8.90;99.90
39925;DHT22;25592;49.986;11.618;2023-12-14T10:02:38;8.90;99.90
39925;DHT22;25592;49.986;11.618;2023-12-14T10:05:23;9.00;99.90
39925;DHT22;25592;49.986;11.618;2023-12-14T10:08:09;8.90;99.90
39925;DHT22;25592;49.986;11.618;2023-12-14T10:10:55;8.90;99.90
39925;DHT22;25592;49.986;11.618;2023-12-14T10:13:40;9.00;99.90
39925;DHT22;25592;49.986;11.618;2023-12-14T10:16:31;9.00;99.90
39925;DHT22;25592;49.986;11.618;2023-12-14T10:19:18;8.90;99.90
39925;DHT22;25592;49.986;11.618;2023-12-14T10:22:06;8.90;99.90
39925;DHT22;25592;49.986;11.618;2023-12-14T10:24:53;8.90;99.90
39925;DHT22;25592;49.986;11.618;2023-12-14T10:27:38;8.90;99.90
39925;DHT22;25592;49.986;11.618;2023-12-14T10:30:24;8.90;99.90
39925;DHT22;25592;49.986;11.618;2023-12-14T10:33:09;8.80;99.90
39925;DHT22;25592;49.986;11.618;2023-12-14T10:35:56;8.80;99.90
39925;DHT22;25592;49.986;11.618;2023-12-14T10:38:43;8.80;99.90
39925;DHT22;25592;49.986;11.618;2023-12-14T10:41:31;8.80;99.90
39925;DHT22;25592;49.986;11.618;2023-12-14T10:44:18;8.80;99.90
39925;DHT22;25592;49.986;11.618;2023-12-14T10:47:25;8.80;99.90
39925;DHT22;25592;49.986;11.618;2023-12-14T10:50:12;8.90;99.90
39925;DHT22;25592;49.986;11.618;2023-12-14T10:52:58;8.90;99.90
39925;DHT22;25592;49.986;11.618;2023-12-14T10:55:44;8.90;99.90
39925;DHT22;25592;49.986;11.618;2023-12-14T10:58:48;8.90;99.90
39925;DHT22;25592;49.986;11.618;2023-12-14T11:01:35;8.90;99.90
39925;DHT22;25592;49.986;11.618;2023-12-14T11:04:26;8.90;99.90
39925;DHT22;25592;49.986;11.618;2023-12-14T11:07:12;8.90;99.90
39925;DHT22;25592;49.986;11.618;2023-12-14T11:09:59;9.00;99.90
39925;DHT22;25592;49.986;11.618;2023-12-14T11:13:00;9.00;99.90
39925;DHT22;25592;49.986;11.618;2023-12-14T11:15:49;9.00;99.90
39925;DHT22;25592;49.986;11.618;2023-12-14T11:18:35;9.00;99.90
39925;DHT22;25592;49.986;11.618;2023-12-14T11:21:20;9.00;99.90
39925;DHT22;25592;49.986;11.618;2023-12-14T11:24:06;9.00;99.90
39925;DHT22;25592;49.986;11.618;2023-12-14T11:26:52;8.90;99.90
39925;DHT22;25592;49.986;11.618;2023-12-14T11:29:38;8.90;99.90
39925;DHT22;25592;49.986;11.618;2023-12-14T11:32:25;8.80;99.90
39925;DHT22;25592;49.986;11.618;2023-12-14T11:35:10;8.80;99.90
39925;DHT22;25592;49.986;11.618;2023-12-14T11:37:57;8.80;99.90
39925;DHT22;25592;49.986;11.618;2023-12-14T11:40:45;8.80;99.90
39925;DHT22;25592;49.986;11.618;2023-12-14T11:43:33;8.80;99.90
39925;DHT22;25592;49.986;11.618;2023-12-14T11:46:23;8.70;99.90
39925;DHT22;25592;49.986;11.618;2023-12-14T11:49:08;8.60;99.90
39925;DHT22;25592;49.986;11.618;2023-12-14T11:51:57;8.50;99.90
39925;DHT22;25592;49.986;11.618;2023-12-14T11:54:42;8.50;99.90
39925;DHT22;25592;49.986;11.618;2023-12-14T11:57:29;8.40;99.90
39925;DHT22;25592;49.986;11.618;2023-12-14T12:00:14;8.40;99.90
39925;DHT22;25592;49.986;11.618;2023-12-14T12:05:52;8.50;99.90
39925;DHT22;25592;49.986;11.618;2023-12-14T12:08:41;8.40;99.90
39925;DHT22;25592;49.986;11.618;2023-12-14T12:11:30;8.50;99.90
39925;DHT22;25592;49.986;11.618;2023-12-14T12:14:17;8.60;99.90
39925;DHT22;25592;49.986;11.618;2023-12-14T12:17:03;8.60;99.90
39925;DHT22;25592;49.986;11.618;2023-12-14T12:19:49;8.60;99.90
39925;DHT22;25592;49.986;11.618;2023-12-14T12:22:35;8.70;99.90
39925;DHT22;25592;49.986;11.618;2023-12-14T12:25:20;8.70;99.90
39925;DHT22;25592;49.986;11.618;2023-12-14T12:28:06;8.80;99.90
39925;DHT22;25592;49.986;11.618;2023-12-14T12:30:52;8.80;99.90
39925;DHT22;25592;49.986;11.618;2023-12-14T12:33:37;8.70;99.90
39925;DHT22;25592;49.986;11.618;2023-12-14T12:36:24;8.70;99.90
39925;DHT22;25592;49.986;11.618;2023-12-14T12:39:09;8.70;99.90
39925;DHT22;25592;49.986;11.618;2023-12-14T12:41:55;8.70;99.90
39925;DHT22;25592;49.986;11.618;2023-12-14T12:44:41;8.70;99.90
39925;DHT22;25592;49.986;11.618;2023-12-14T12:47:26;8.90;99.90
39925;DHT22;25592;49.986;11.618;2023-12-14T12:50:12;8.90;99.90
39925;DHT22;25592;49.986;11.618;2023-12-14T12:52:58;8.80;99.90
39925;DHT22;25592;49.986;11.618;2023-12-14T12:55:44;8.80;99.90
39925;DHT22;25592;49.986;11.618;2023-12-14T12:58:29;8.80;99.90
39925;DHT22;25592;49.986;11.618;2023-12-14T13:01:15;8.80;99.90
39925;DHT22;25592;49.986;11.618;2023-12-14T13:04:01;8.80;99.90
39925;DHT22;25592;49.986;11.618;2023-12-14T13:06:48;8.60;99.90
39925;DHT22;25592;49.986;11.618;2023-12-14T13:09:33;8.60;99.90
39925;DHT22;25592;49.986;11.618;2023-12-14T13:12:19;8.60;99.90
39925;DHT22;25592;49.986;11.618;2023-12-14T13:15:04;8.50;99.90
39925;DHT22;25592;49.986;11.618;2023-12-14T13:17:50;8.50;99.90
39925;DHT22;25592;49.986;11.618;2023-12-14T13:20:36;8.30;99.90
39925;DHT22;25592;49.986;11.618;2023-12-14T13:23:21;8.30;99.90
39925;DHT22;25592;49.986;11.618;2023-12-14T13:26:07;8.40;99.90
39925;DHT22;25592;49.986;11.618;2023-12-14T13:28:52;8.20;99.90
39925;DHT22;25592;49.986;11.618;2023-12-14T13:31:37;8.30;99.90
39925;DHT22;25592;49.986;11.618;2023-12-14T13:34:23;8.40;99.90
39925;DHT22;25592;49.986;11.618;2023-12-14T13:37:09;8.20;99.90
39925;DHT22;25592;49.986;11.618;2023-12-14T13:39:54;8.20;99.90
39925;DHT22;25592;49.986;11.618;2023-12-14T13:42:40;8.20;99.90
39925;DHT22;25592;49.986;11.618;2023-12-14T13:45:43;8.20;99.90
39925;DHT22;25592;49.986;11.618;2023-12-14T13:48:29;8.20;99.90
39925;DHT22;25592;49.986;11.618;2023-12-14T13:51:14;8.30;99.90
39925;DHT22;25592;49.986;11.618;2023-12-14T13:54:00;8.40;99.90
39925;DHT22;25592;49.986;11.618;2023-12-14T13:56:45;8.40;99.90
39925;DHT22;25592;49.986;11.618;2023-12-14T13:59:30;8.40;99.90
39925;DHT22;25592;49.986;11.618;2023-12-14T14:02:16;8.50;99.90
39925;DHT22;25592;49.986;11.618;2023-12-14T14:05:02;8.50;99.90
39925;DHT22;25592;49.986;11.618;2023-12-14T14:07:47;8.50;99.90
39925;DHT22;25592;49.986;11.618;2023-12-14T14:10:33;8.40;99.90
39925;DHT22;25592;49.986;11.618;2023-12-14T14:13:19;8.50;99.90
39925;DHT22;25592;49.986;11.618;2023-12-14T14:16:06;8.60;99.90
39925;DHT22;25592;49.986;11.618;2023-12-14T14:18:52;8.60;99.90
39925;DHT22;25592;49.986;11.618;2023-12-14T14:21:38;8.60;99.90
39925;DHT22;25592;49.986;11.618;2023-12-14T14:24:23;8.40;99.90
39925;DHT22;25592;49.986;11.618;2023-12-14T14:27:09;8.30;99.90
39925;DHT22;25592;49.986;11.618;2023-12-14T14:29:54;8.30;99.90
39925;DHT22;25592;49.986;11.618;2023-12-14T14:32:42;8.30;99.90
39925;DHT22;25592;49.986;11.618;2023-12-14T14:35:27;8.30;99.90
39925;DHT22;25592;49.986;11.618;2023-12-14T14:38:14;8.30;99.90
39925;DHT22;25592;49.986;11.618;2023-12-14T14:40:59;8.20;99.90
39925;DHT22;25592;49.986;11.618;2023-12-14T14:43:45;8.10;99.90
39925;DHT22;25592;49.986;11.618;2023-12-14T14:46:31;8.10;99.90
39925;DHT22;25592;49.986;11.618;2023-12-14T14:49:17;8.10;99.90
39925;DHT22;25592;49.986;11.618;2023-12-14T14:52:03;8.00;99.90
39925;DHT22;25592;49.986;11.618;2023-12-14T14:54:49;8.00;99.90
39925;DHT22;25592;49.986;11.618;2023-12-14T14:57:34;8.00;99.90
39925;DHT22;25592;49.986;11.618;2023-12-14T15:00:20;8.00;99.90
39925;DHT22;25592;49.986;11.618;2023-12-14T15:03:06;8.00;99.90
39925;DHT22;25592;49.986;11.618;2023-12-14T15:05:55;8.00;99.90
39925;DHT22;25592;49.986;11.618;2023-12-14T15:08:41;8.00;99.90
39925;DHT22;25592;49.986;11.618;2023-12-14T15:11:28;8.00;99.90
39925;DHT22;25592;49.986;11.618;2023-12-14T15:14:13;8.10;99.90
39925;DHT22;25592;49.986;11.618;2023-12-14T15:16:59;8.20;99.90
39925;DHT22;25592;49.986;11.618;2023-12-14T15:19:45;8.30;99.90
39925;DHT22;25592;49.986;11.618;2023-12-14T15:22:31;8.30;99.90
39925;DHT22;25592;49.986;11.618;2023-12-14T15:25:17;8.30;99.90
39925;DHT22;25592;49.986;11.618;2023-12-14T15:28:02;8.30;99.90
39925;DHT22;25592;49.986;11.618;2023-12-14T15:30:47;8.40;99.90
39925;DHT22;25592;49.986;11.618;2023-12-14T15:33:33;8.30;99.90
39925;DHT22;25592;49.986;11.618;2023-12-14T15:36:19;8.40;99.90
39925;DHT22;25592;49.986;11.618;2023-12-14T15:39:04;8.50;99.90
39925;DHT22;25592;49.986;11.618;2023-12-14T15:41:50;8.40;99.90
39925;DHT22;25592;49.986;11.618;2023-12-14T15:44:35;8.50;99.90
39925;DHT22;25592;49.986;11.618;2023-12-14T15:47:21;8.50;99.90
39925;DHT22;25592;49.986;11.618;2023-12-14T15:50:07;8.50;99.90
39925;DHT22;25592;49.986;11.618;2023-12-14T15:52:53;8.40;99.90
39925;DHT22;25592;49.986;11.618;2023-12-14T15:55:39;8.40;99.90
39925;DHT22;25592;49.986;11.618;2023-12-14T15:58:25;8.40;99.90
39925;DHT22;25592;49.986;11.618;2023-12-14T16:01:11;8.30;99.90
39925;DHT22;25592;49.986;11.618;2023-12-14T16:03:56;8.30;99.90
39925;DHT22;25592;49.986;11.618;2023-12-14T16:06:42;8.30;99.90
39925;DHT22;25592;49.986;11.618;2023-12-14T16:09:28;8.30;99.90
39925;DHT22;25592;49.986;11.618;2023-12-14T16:12:13;8.20;99.90
39925;DHT22;25592;49.986;11.618;2023-12-14T16:14:59;8.20;99.90
39925;DHT22;25592;49.986;11.618;2023-12-14T16:17:44;8.30;99.90
39925;DHT22;25592;49.986;11.618;2023-12-14T16:20:30;8.30;99.90
39925;DHT22;25592;49.986;11.618;2023-12-14T16:23:15;8.30;99.90
39925;DHT22;25592;49.986;11.618;2023-12-14T16:26:01;8.30;99.90
39925;DHT22;25592;49.986;11.618;2023-12-14T16:28:46;8.30;99.90
39925;DHT22;25592;49.986;11.618;2023-12-14T16:31:32;8.20;99.90
39925;DHT22;25592;49.986;11.618;2023-12-14T16:34:18;8.20;99.90
39925;DHT22;25592;49.986;11.618;2023-12-14T16:37:03;8.20;99.90
39925;DHT22;25592;49.986;11.618;2023-12-14T16:39:48;8.20;99.90
39925;DHT22;25592;49.986;11.618;2023-12-14T16:42:34;8.20;99.90
39925;DHT22;25592;49.986;11.618;2023-12-14T16:45:20;8.20;99.90
39925;DHT22;25592;49.986;11.618;2023-12-14T16:48:05;8.20;99.90
39925;DHT22;25592;49.986;11.618;2023-12-14T16:50:51;8.20;99.90
39925;DHT22;25592;49.986;11.618;2023-12-14T16:53:39;8.20;99.90
39925;DHT22;25592;49.986;11.618;2023-12-14T16:56:29;8.20;99.90
39925;DHT22;25592;49.986;11.618;2023-12-14T16:59:15;8.10;99.90
39925;DHT22;25592;49.986;11.618;2023-12-14T17:02:00;8.00;99.90
39925;DHT22;25592;49.986;11.618;2023-12-14T17:04:46;7.90;99.90
39925;DHT22;25592;49.986;11.618;2023-12-14T17:07:31;7.90;99.90
39925;DHT22;25592;49.986;11.618;2023-12-14T17:10:17;7.90;99.90
39925;DHT22;25592;49.986;11.618;2023-12-14T17:13:02;7.90;99.90
39925;DHT22;25592;49.986;11.618;2023-12-14T17:15:48;7.80;99.90
39925;DHT22;25592;49.986;11.618;2023-12-14T17:18:35;7.80;99.90
39925;DHT22;25592;49.986;11.618;2023-12-14T17:21:25;7.70;99.90
39925;DHT22;25592;49.986;11.618;2023-12-14T17:24:11;7.90;99.90
39925;DHT22;25592;49.986;11.618;2023-12-14T17:26:56;7.90;99.90
39925;DHT22;25592;49.986;11.618;2023-12-14T17:29:42;8.00;99.90
39925;DHT22;25592;49.986;11.618;2023-12-14T17:32:27;7.90;99.90